Time;durP1;ratioP1;P1;durP2;ratioP2;P2;SDS_P1;SDS_P2;PMS_P1;PMS_P2;Temp;Humidity;BMP_temperature;BMP_pressure;BME280_temperature;BME280_humidity;BME280_pressure;Samples;Min_cycle;Max_cycle;Signal;HPM_P1;HPM_P2
2024/01/31 00:01:28;;;;;;;31.80;17.10;;;8.70;63.50;;;;;;5050940;28;20390;-75
2024/01/31 00:03:54;;;;;;;29.97;18.10;;;8.80;63.30;;;;;;5050851;28;20468;-75
2024/01/31 00:06:19;;;;;;;33.72;18.48;;;8.70;63.60;;;;;;5051394;28;20381;-76
2024/01/31 00:08:45;;;;;;;31.75;17.83;;;8.70;64.10;;;;;;5051002;28;20400;-76
2024/01/31 00:11:10;;;;;;;33.07;18.33;;;8.70;64.30;;;;;;5051481;28;20480;-76
2024/01/31 00:13:36;;;;;;;32.60;18.13;;;8.70;65.80;;;;;;5054136;28;20389;-75
2024/01/31 00:16:02;;;;;;;33.63;18.90;;;8.70;64.80;;;;;;5058161;28;20408;-76
2024/01/31 00:18:28;;;;;;;32.00;18.55;;;8.70;64.30;;;;;;5058455;28;20401;-75
2024/01/31 00:20:53;;;;;;;34.10;18.70;;;8.80;64.20;;;;;;5050753;28;20390;-75
2024/01/31 00:23:19;;;;;;;36.57;18.87;;;8.70;64.60;;;;;;5051076;28;20417;-75
2024/01/31 00:25:45;;;;;;;34.00;18.90;;;8.70;65.30;;;;;;5050860;28;20761;-75
2024/01/31 00:28:12;;;;;;;35.20;19.50;;;8.70;65.50;;;;;;5050836;28;20891;-76
2024/01/31 00:30:38;;;;;;;36.83;19.17;;;8.70;65.80;;;;;;5051678;28;20823;-75
2024/01/31 00:33:04;;;;;;;36.53;19.92;;;8.70;65.90;;;;;;5055383;28;20484;-76
2024/01/31 00:35:29;;;;;;;34.60;19.25;;;8.70;66.10;;;;;;5037372;28;20418;-77
2024/01/31 00:37:55;;;;;;;37.40;20.53;;;8.60;67.30;;;;;;5054831;28;20400;-76
2024/01/31 00:40:21;;;;;;;40.00;20.73;;;8.60;68.20;;;;;;5054806;28;20385;-75
2024/01/31 00:42:46;;;;;;;37.05;20.00;;;8.60;68.50;;;;;;5054260;28;20381;-76
2024/01/31 00:45:13;;;;;;;37.33;20.42;;;8.60;69.60;;;;;;5054529;28;20381;-77
2024/01/31 00:47:40;;;;;;;41.65;21.35;;;8.60;70.80;;;;;;5036818;28;20418;-74
2024/01/31 00:50:06;;;;;;;39.28;21.02;;;8.50;71.60;;;;;;5054568;28;20468;-75
2024/01/31 00:52:32;;;;;;;37.92;20.77;;;8.50;72.70;;;;;;5054468;28;20490;-76
2024/01/31 00:54:57;;;;;;;37.10;20.73;;;8.50;73.90;;;;;;5054467;28;20420;-75
2024/01/31 00:57:23;;;;;;;39.70;21.63;;;8.60;73.70;;;;;;5054586;28;20389;-76
2024/01/31 00:59:48;;;;;;;40.73;22.30;;;8.50;74.80;;;;;;5054809;28;20487;-76
2024/01/31 01:02:16;;;;;;;44.17;22.07;;;8.50;75.90;;;;;;5054424;28;20393;-74
2024/01/31 01:04:42;;;;;;;41.75;22.55;;;8.50;75.00;;;;;;5054791;28;20446;-76
2024/01/31 01:07:07;;;;;;;41.20;21.95;;;8.50;76.40;;;;;;5054669;28;20381;-77
2024/01/31 01:09:34;;;;;;;42.33;22.70;;;8.60;76.10;;;;;;5054012;28;20802;-75
2024/01/31 01:12:00;;;;;;;43.95;22.70;;;8.60;76.60;;;;;;5054307;28;20514;-75
2024/01/31 01:14:26;;;;;;;32.05;15.32;;;8.60;77.70;;;;;;5054820;28;20904;-74
2024/01/31 01:16:51;;;;;;;27.00;12.85;;;8.40;76.90;;;;;;5060151;28;20381;-75
2024/01/31 01:19:17;;;;;;;31.70;13.35;;;8.20;78.20;;;;;;5054092;28;20408;-77
2024/01/31 01:21:42;;;;;;;24.63;13.05;;;8.10;80.20;;;;;;5053656;28;20385;-75
2024/01/31 01:24:08;;;;;;;25.90;13.38;;;8.10;82.10;;;;;;5054168;28;20385;-76
2024/01/31 01:26:40;;;;;;;31.13;12.80;;;8.00;83.60;;;;;;5054007;28;20408;-76
2024/01/31 01:29:07;;;;;;;30.25;12.50;;;7.80;85.80;;;;;;5054008;28;20382;-75
2024/01/31 01:31:32;;;;;;;31.40;13.88;;;7.80;87.80;;;;;;5053776;28;21217;-76
2024/01/31 01:33:59;;;;;;;30.40;13.40;;;7.70;89.80;;;;;;5053650;28;20760;-76
2024/01/31 01:36:25;;;;;;;30.05;12.60;;;7.70;91.40;;;;;;5056696;28;20595;-74
2024/01/31 01:38:50;;;;;;;26.58;12.10;;;7.70;91.20;;;;;;5057336;28;20408;-76
2024/01/31 01:41:16;;;;;;;32.60;12.60;;;7.60;92.40;;;;;;5055737;28;20385;-76
2024/01/31 01:43:42;;;;;;;29.02;12.30;;;7.60;92.90;;;;;;5055470;28;20385;-76
2024/01/31 01:46:17;;;;;;;30.98;12.35;;;7.60;93.40;;;;;;5055495;28;20409;-75
2024/01/31 01:48:43;;;;;;;27.42;12.73;;;7.60;93.90;;;;;;5053695;28;20776;-76
2024/01/31 01:51:10;;;;;;;30.63;13.63;;;7.60;94.00;;;;;;5053208;28;20405;-76
2024/01/31 01:53:37;;;;;;;37.00;14.52;;;7.60;94.10;;;;;;5053468;28;20404;-76
2024/01/31 01:56:04;;;;;;;34.90;15.63;;;7.60;94.90;;;;;;5053616;28;20449;-76
2024/01/31 01:58:31;;;;;;;33.40;14.70;;;7.60;95.40;;;;;;5053396;28;20402;-76
2024/01/31 02:01:01;;;;;;;33.35;13.63;;;7.60;96.40;;;;;;5052968;28;20385;-76
2024/01/31 02:03:29;;;;;;;35.03;14.40;;;7.70;96.60;;;;;;5053127;28;20950;-76
2024/01/31 02:05:57;;;;;;;33.42;14.05;;;7.70;95.60;;;;;;5053154;28;20413;-76
2024/01/31 02:08:23;;;;;;;30.98;14.18;;;7.80;94.30;;;;;;5034840;28;20386;-76
2024/01/31 02:10:49;;;;;;;35.58;15.05;;;7.70;94.10;;;;;;5068434;22;20408;-72
2024/01/31 02:13:14;;;;;;;37.72;14.15;;;7.70;93.90;;;;;;5073029;28;20395;-74
2024/01/31 02:15:53;;;;;;;30.33;14.60;;;7.70;93.40;;;;;;5073602;28;20384;-72
2024/01/31 02:18:19;;;;;;;30.20;13.93;;;7.70;93.50;;;;;;5072783;28;20410;-72
2024/01/31 02:20:45;;;;;;;34.25;13.95;;;7.70;92.90;;;;;;5072901;28;20392;-72
2024/01/31 02:23:10;;;;;;;29.25;12.73;;;7.70;92.20;;;;;;5072875;28;20372;-71
2024/01/31 02:25:36;;;;;;;36.83;14.48;;;7.60;90.90;;;;;;5072998;28;20468;-72
2024/01/31 02:28:02;;;;;;;29.60;12.03;;;7.60;90.90;;;;;;5072788;28;20376;-71
2024/01/31 02:30:27;;;;;;;31.83;13.00;;;7.70;90.60;;;;;;5078533;28;20372;-72
2024/01/31 02:32:54;;;;;;;28.13;12.77;;;7.70;89.60;;;;;;5078853;28;20379;-70
2024/01/31 02:35:19;;;;;;;28.98;10.40;;;7.70;89.10;;;;;;5078038;28;20764;-70
2024/01/31 02:37:45;;;;;;;20.35;10.68;;;7.60;87.50;;;;;;5077859;28;20419;-70
2024/01/31 02:40:11;;;;;;;21.03;8.73;;;7.60;88.50;;;;;;5077015;28;20392;-71
2024/01/31 02:42:37;;;;;;;19.87;8.90;;;7.60;86.90;;;;;;5076613;28;20379;-70
2024/01/31 02:45:03;;;;;;;18.00;8.80;;;7.50;87.30;;;;;;5075978;28;20395;-70
2024/01/31 02:47:28;;;;;;;25.55;9.50;;;7.50;88.80;;;;;;5074456;28;20491;-70
2024/01/31 02:49:54;;;;;;;26.03;9.70;;;7.50;89.00;;;;;;5074993;28;20407;-73
2024/01/31 02:52:20;;;;;;;22.07;8.43;;;7.50;88.40;;;;;;5075035;28;20395;-70
2024/01/31 02:54:45;;;;;;;19.60;8.83;;;7.50;88.80;;;;;;5056694;28;20391;-71
2024/01/31 02:57:11;;;;;;;21.87;9.87;;;7.50;88.50;;;;;;5056457;28;20412;-71
2024/01/31 02:59:39;;;;;;;23.73;9.60;;;7.60;87.80;;;;;;5056758;28;20995;-71
2024/01/31 03:02:05;;;;;;;22.35;9.93;;;7.60;88.10;;;;;;5057104;28;20388;-71
2024/01/31 03:04:30;;;;;;;23.42;9.40;;;7.50;87.40;;;;;;5074859;28;20785;-71
2024/01/31 03:06:56;;;;;;;23.30;9.47;;;7.50;89.60;;;;;;5072691;28;20387;-71
2024/01/31 03:09:21;;;;;;;22.27;9.02;;;7.60;89.70;;;;;;5071745;28;20791;-72
2024/01/31 03:11:47;;;;;;;22.33;9.07;;;7.60;88.20;;;;;;5071529;28;20775;-70
2024/01/31 03:14:13;;;;;;;23.58;9.77;;;7.70;86.70;;;;;;5071815;28;20383;-71
2024/01/31 03:16:39;;;;;;;24.83;8.07;;;7.80;85.80;;;;;;5071836;28;20463;-71
2024/01/31 03:19:06;;;;;;;21.20;8.38;;;7.80;84.80;;;;;;5053914;28;20403;-71
2024/01/31 03:21:31;;;;;;;16.17;7.20;;;7.80;84.10;;;;;;5053597;28;20392;-71
2024/01/31 03:23:57;;;;;;;17.50;7.50;;;7.80;82.70;;;;;;5072136;28;20398;-71
2024/01/31 03:26:22;;;;;;;19.03;8.40;;;7.70;82.70;;;;;;5076579;28;20878;-72
2024/01/31 03:28:48;;;;;;;19.20;7.43;;;7.70;83.50;;;;;;5079970;28;20818;-71
2024/01/31 03:31:13;;;;;;;17.60;6.70;;;7.70;82.60;;;;;;5083558;28;20418;-73
2024/01/31 03:33:39;;;;;;;17.20;6.97;;;7.70;82.90;;;;;;5083799;28;20407;-71
2024/01/31 03:36:05;;;;;;;14.70;6.87;;;7.70;82.20;;;;;;5083103;28;20383;-72
2024/01/31 03:38:30;;;;;;;14.35;7.07;;;7.60;82.60;;;;;;5080032;28;20418;-71
2024/01/31 03:40:56;;;;;;;17.90;7.43;;;7.60;82.60;;;;;;5077172;28;20396;-70
2024/01/31 03:43:21;;;;;;;18.40;7.50;;;7.60;83.90;;;;;;5053900;28;20382;-71
2024/01/31 03:45:47;;;;;;;18.87;7.73;;;7.60;83.90;;;;;;5053256;28;20380;-72
2024/01/31 03:48:13;;;;;;;18.70;7.43;;;7.70;83.00;;;;;;5071087;28;20384;-72
2024/01/31 03:50:38;;;;;;;17.40;7.70;;;7.70;84.00;;;;;;5071204;28;20387;-72
2024/01/31 03:53:04;;;;;;;17.30;7.50;;;7.70;81.40;;;;;;5070966;28;20376;-72
2024/01/31 03:55:29;;;;;;;19.90;8.00;;;7.70;80.20;;;;;;5071029;28;20900;-72
2024/01/31 03:57:55;;;;;;;15.87;7.60;;;7.70;80.60;;;;;;5070943;28;20792;-71
2024/01/31 04:00:20;;;;;;;16.37;7.67;;;7.60;79.80;;;;;;5071070;28;20384;-71
2024/01/31 04:02:46;;;;;;;20.40;7.80;;;7.50;80.90;;;;;;5070951;28;20429;-71
2024/01/31 04:05:12;;;;;;;19.40;8.47;;;7.60;81.50;;;;;;5070369;28;20384;-71
2024/01/31 04:07:38;;;;;;;18.23;8.07;;;7.60;82.30;;;;;;5070897;28;20384;-72
2024/01/31 04:10:04;;;;;;;19.57;7.70;;;7.60;82.90;;;;;;5070800;28;20394;-72
2024/01/31 04:12:29;;;;;;;22.27;8.25;;;7.50;82.40;;;;;;5070655;28;20901;-74
2024/01/31 04:14:55;;;;;;;17.58;7.75;;;7.60;81.90;;;;;;5070872;28;20481;-71
2024/01/31 04:17:21;;;;;;;18.35;8.10;;;7.60;81.60;;;;;;5070789;28;20402;-71
2024/01/31 04:19:48;;;;;;;16.45;8.13;;;7.30;85.00;;;;;;5070691;28;20911;-72
2024/01/31 04:22:15;;;;;;;17.88;9.13;;;7.20;88.60;;;;;;5052570;28;20870;-72
2024/01/31 04:24:42;;;;;;;22.80;8.10;;;7.30;91.20;;;;;;5070528;28;20437;-71
2024/01/31 04:27:07;;;;;;;17.27;8.80;;;7.50;89.50;;;;;;5052829;28;20900;-70
2024/01/31 04:29:33;;;;;;;19.47;8.43;;;7.40;87.80;;;;;;5070687;28;20407;-71
2024/01/31 04:31:59;;;;;;;21.17;9.13;;;7.30;89.60;;;;;;5052709;28;20395;-71
2024/01/31 04:34:25;;;;;;;26.38;8.95;;;7.30;91.00;;;;;;5070723;28;20943;-71
2024/01/31 04:36:51;;;;;;;23.70;9.15;;;7.40;90.70;;;;;;5069961;28;20391;-72
2024/01/31 04:39:16;;;;;;;23.33;8.77;;;7.40;89.10;;;;;;5061422;28;20415;-72
2024/01/31 04:41:43;;;;;;;16.20;8.20;;;7.50;88.00;;;;;;5059592;28;20498;-71
2024/01/31 04:44:08;;;;;;;16.52;7.45;;;7.90;80.00;;;;;;5059710;28;20379;-71
2024/01/31 04:46:36;;;;;;;16.67;7.95;;;7.90;78.00;;;;;;5071292;28;20379;-73
2024/01/31 04:49:01;;;;;;;20.25;9.13;;;7.80;79.50;;;;;;5059253;28;20426;-69
2024/01/31 04:51:27;;;;;;;17.65;8.90;;;7.60;81.70;;;;;;5054862;28;20949;-71
2024/01/31 04:53:52;;;;;;;19.33;8.40;;;7.60;85.10;;;;;;5050577;28;20744;-71
2024/01/31 04:56:18;;;;;;;20.20;8.80;;;7.70;83.30;;;;;;5050687;28;20381;-71
2024/01/31 04:58:44;;;;;;;19.23;7.80;;;7.70;81.70;;;;;;5054175;28;20515;-71
2024/01/31 05:01:09;;;;;;;18.80;7.93;;;7.70;81.80;;;;;;5070559;28;20396;-71
2024/01/31 05:03:35;;;;;;;19.17;7.93;;;7.70;80.60;;;;;;5069317;28;20415;-71
2024/01/31 05:06:00;;;;;;;15.13;7.90;;;7.50;81.50;;;;;;5071053;28;20433;-72
2024/01/31 05:08:29;;;;;;;19.27;8.57;;;7.40;83.10;;;;;;5070959;28;20391;-71
2024/01/31 05:10:55;;;;;;;21.13;8.70;;;7.30;83.90;;;;;;5070431;28;20383;-71
2024/01/31 05:13:21;;;;;;;18.60;8.02;;;7.40;85.70;;;;;;5071997;28;20749;-73
2024/01/31 05:15:47;;;;;;;16.60;7.35;;;7.70;80.50;;;;;;5071222;28;20396;-71
2024/01/31 05:18:14;;;;;;;19.97;7.57;;;7.90;78.20;;;;;;5072946;28;20427;-71
2024/01/31 05:20:39;;;;;;;18.63;8.20;;;7.90;77.10;;;;;;5074781;28;20746;-69
2024/01/31 05:23:05;;;;;;;17.47;8.50;;;7.80;77.30;;;;;;5074311;28;20372;-70
2024/01/31 05:25:30;;;;;;;21.17;8.67;;;7.70;80.40;;;;;;5073883;28;20432;-71
2024/01/31 05:27:56;;;;;;;26.47;9.27;;;7.50;82.60;;;;;;5073544;28;20402;-69
2024/01/31 05:30:22;;;;;;;19.30;8.70;;;7.50;83.90;;;;;;5073381;28;20391;-69
2024/01/31 05:32:47;;;;;;;23.50;10.00;;;7.40;84.60;;;;;;5073282;28;20468;-71
2024/01/31 05:35:13;;;;;;;14.17;7.80;;;7.30;86.00;;;;;;5072973;28;20437;-71
2024/01/31 05:37:39;;;;;;;15.10;8.20;;;7.40;86.00;;;;;;5073421;28;20378;-71
2024/01/31 05:40:05;;;;;;;17.30;8.73;;;7.70;80.50;;;;;;5055132;28;20426;-71
2024/01/31 05:42:31;;;;;;;18.05;8.57;;;7.80;79.30;;;;;;5073111;28;20391;-69
2024/01/31 05:44:57;;;;;;;20.33;8.60;;;7.80;78.50;;;;;;5073135;28;20467;-70
2024/01/31 05:47:23;;;;;;;18.23;8.47;;;7.70;79.60;;;;;;5073212;28;20806;-70
2024/01/31 05:49:48;;;;;;;19.42;9.10;;;7.60;78.90;;;;;;5073258;28;20391;-69
2024/01/31 05:52:14;;;;;;;16.00;8.50;;;7.50;78.80;;;;;;5072378;28;20463;-69
2024/01/31 05:54:39;;;;;;;17.52;8.68;;;7.60;79.70;;;;;;5073200;28;20463;-71
2024/01/31 05:57:06;;;;;;;20.25;9.25;;;7.80;76.40;;;;;;5074002;28;20877;-71
2024/01/31 05:59:31;;;;;;;19.60;9.57;;;7.60;78.30;;;;;;5073206;28;20399;-72
2024/01/31 06:01:57;;;;;;;17.53;8.20;;;7.40;80.90;;;;;;5073217;28;20442;-70
2024/01/31 06:04:23;;;;;;;22.27;9.80;;;7.40;80.60;;;;;;5054889;28;20383;-70
2024/01/31 06:06:48;;;;;;;15.87;8.30;;;7.40;80.20;;;;;;5072751;28;20438;-70
2024/01/31 06:09:14;;;;;;;20.27;9.23;;;7.70;78.60;;;;;;5073131;28;20849;-70
2024/01/31 06:11:39;;;;;;;14.70;8.80;;;7.90;73.80;;;;;;5072800;28;20388;-73
2024/01/31 06:14:06;;;;;;;15.20;8.33;;;7.90;72.90;;;;;;5072653;28;20858;-70
2024/01/31 06:16:32;;;;;;;21.33;10.43;;;7.90;71.60;;;;;;5054414;28;20394;-73
2024/01/31 06:18:59;;;;;;;23.77;9.70;;;7.60;75.00;;;;;;5072977;28;20758;-71
2024/01/31 06:21:25;;;;;;;16.70;9.30;;;7.40;79.00;;;;;;5072275;28;20792;-69
2024/01/31 06:23:51;;;;;;;24.67;11.07;;;7.40;80.70;;;;;;5072227;28;20454;-69
2024/01/31 06:26:16;;;;;;;24.55;10.13;;;7.30;81.30;;;;;;5072415;28;20882;-69
2024/01/31 06:28:42;;;;;;;26.40;9.60;;;7.30;82.70;;;;;;5072243;28;20388;-70
2024/01/31 06:31:16;;;;;;;17.73;9.05;;;7.30;83.10;;;;;;5072709;28;20958;-72
2024/01/31 06:33:42;;;;;;;24.10;10.33;;;7.30;82.80;;;;;;5073415;28;20880;-70
2024/01/31 06:36:09;;;;;;;21.73;9.45;;;7.30;82.80;;;;;;5074593;28;20388;-73
2024/01/31 06:38:35;;;;;;;16.60;8.40;;;7.30;82.20;;;;;;5074694;28;20395;-71
2024/01/31 06:41:00;;;;;;;20.73;10.10;;;7.40;79.50;;;;;;5073027;28;20434;-71
2024/01/31 06:43:26;;;;;;;13.60;8.40;;;7.30;80.00;;;;;;5072063;28;20573;-70
2024/01/31 06:45:53;;;;;;;20.40;9.40;;;7.40;79.60;;;;;;5072059;28;20384;-69
2024/01/31 06:48:18;;;;;;;20.83;9.40;;;7.40;78.50;;;;;;5071786;28;20415;-71
2024/01/31 06:50:44;;;;;;;20.25;9.88;;;7.30;79.90;;;;;;5071777;28;20414;-71
2024/01/31 06:53:10;;;;;;;20.25;10.05;;;7.30;80.50;;;;;;5071743;28;20394;-69
2024/01/31 06:55:36;;;;;;;20.77;10.73;;;7.30;80.90;;;;;;5071689;28;20758;-70
2024/01/31 06:58:01;;;;;;;22.90;10.25;;;7.20;82.20;;;;;;5071416;28;20881;-69
2024/01/31 07:00:27;;;;;;;23.20;10.35;;;7.20;82.30;;;;;;5071121;28;20384;-70
2024/01/31 07:02:53;;;;;;;24.13;10.32;;;7.40;82.70;;;;;;5072613;28;20372;-70
2024/01/31 07:05:19;;;;;;;21.65;11.48;;;7.30;83.90;;;;;;5071481;28;20380;-69
2024/01/31 07:07:47;;;;;;;30.25;13.25;;;7.30;85.10;;;;;;5071392;28;20441;-71
2024/01/31 07:10:13;;;;;;;29.52;14.10;;;7.30;87.00;;;;;;5072013;28;20391;-69
2024/01/31 07:12:38;;;;;;;26.60;13.00;;;7.20;87.70;;;;;;5071737;28;20397;-70
2024/01/31 07:15:05;;;;;;;21.53;12.70;;;7.20;87.70;;;;;;5070977;28;20829;-70
2024/01/31 07:17:31;;;;;;;23.65;12.93;;;7.20;88.20;;;;;;5071257;28;20392;-69
2024/01/31 07:19:56;;;;;;;26.10;12.05;;;7.20;88.20;;;;;;5071187;28;20396;-70
2024/01/31 07:22:22;;;;;;;23.83;12.02;;;7.40;87.30;;;;;;5071959;28;20444;-71
2024/01/31 07:24:47;;;;;;;30.33;12.73;;;7.40;86.60;;;;;;5071893;28;20376;-70
2024/01/31 07:27:13;;;;;;;32.50;13.23;;;7.40;87.30;;;;;;5070873;28;20388;-71
2024/01/31 07:29:39;;;;;;;23.02;12.00;;;7.30;88.10;;;;;;5052707;28;20445;-68
2024/01/31 07:32:04;;;;;;;23.98;11.55;;;7.40;88.40;;;;;;5070609;28;20380;-68
2024/01/31 07:34:30;;;;;;;23.48;12.30;;;7.50;88.70;;;;;;5070801;28;20400;-69
2024/01/31 07:36:56;;;;;;;27.88;13.57;;;7.60;88.00;;;;;;5053241;28;20395;-70
2024/01/31 07:39:21;;;;;;;24.17;13.00;;;7.50;87.40;;;;;;5071152;28;20411;-71
2024/01/31 07:41:47;;;;;;;30.77;12.90;;;7.40;88.20;;;;;;5070521;28;20383;-70
2024/01/31 07:44:13;;;;;;;24.50;11.70;;;7.40;88.20;;;;;;5071001;28;20432;-71
2024/01/31 07:46:39;;;;;;;26.58;12.77;;;7.50;87.00;;;;;;5052836;28;20383;-70
2024/01/31 07:49:06;;;;;;;25.20;13.30;;;7.50;85.80;;;;;;5070916;28;20411;-70
2024/01/31 07:51:31;;;;;;;26.25;13.50;;;7.50;85.30;;;;;;5070438;28;20379;-71
2024/01/31 07:53:57;;;;;;;23.63;12.85;;;7.50;83.30;;;;;;5071394;28;20453;-70
2024/01/31 07:56:23;;;;;;;21.05;12.13;;;7.60;81.70;;;;;;5053067;28;20821;-71
2024/01/31 07:58:48;;;;;;;28.73;12.85;;;7.60;80.30;;;;;;5070792;28;20404;-69
2024/01/31 08:01:15;;;;;;;24.73;12.30;;;7.80;78.60;;;;;;5069756;28;21458;-69
2024/01/31 08:03:42;;;;;;;22.53;12.50;;;7.80;78.40;;;;;;5070872;28;20392;-69
2024/01/31 08:06:08;;;;;;;25.23;12.40;;;7.70;78.70;;;;;;5071044;28;20483;-70
2024/01/31 08:08:36;;;;;;;21.50;10.63;;;7.70;78.30;;;;;;5070542;28;20437;-69
2024/01/31 08:11:04;;;;;;;22.48;11.52;;;7.90;74.00;;;;;;5081291;22;20360;-76
2024/01/31 08:13:30;;;;;;;23.53;11.67;;;8.00;73.70;;;;;;5050240;28;20377;-75
2024/01/31 08:15:55;;;;;;;23.70;11.30;;;7.90;74.10;;;;;;5050822;28;20882;-75
2024/01/31 08:18:21;;;;;;;25.77;12.70;;;7.90;75.40;;;;;;5050799;28;20464;-75
2024/01/31 08:20:46;;;;;;;27.70;12.57;;;7.80;75.10;;;;;;5051121;28;20488;-75
2024/01/31 08:23:12;;;;;;;27.55;12.65;;;7.80;75.40;;;;;;5052712;28;20772;-75
2024/01/31 08:25:37;;;;;;;26.02;12.93;;;7.90;73.80;;;;;;5062672;28;20451;-75
2024/01/31 08:28:04;;;;;;;27.33;13.50;;;7.80;73.50;;;;;;5066296;28;20388;-75
2024/01/31 08:30:29;;;;;;;31.23;13.47;;;7.90;74.90;;;;;;5060666;28;20436;-76
2024/01/31 08:32:55;;;;;;;28.53;13.23;;;7.90;73.40;;;;;;5050214;28;20460;-75
2024/01/31 08:35:21;;;;;;;29.13;15.03;;;7.90;74.20;;;;;;5050251;28;20382;-76
2024/01/31 08:37:46;;;;;;;30.20;14.60;;;7.90;74.00;;;;;;5050530;28;20434;-75
2024/01/31 08:40:12;;;;;;;24.23;13.20;;;7.90;74.70;;;;;;5050527;28;20401;-76
2024/01/31 08:42:38;;;;;;;35.65;14.73;;;7.90;74.90;;;;;;5050314;28;20384;-76
2024/01/31 08:45:06;;;;;;;33.55;16.23;;;7.90;75.10;;;;;;5050313;28;20450;-75
2024/01/31 08:47:32;;;;;;;34.50;15.83;;;7.90;75.10;;;;;;5050808;28;20467;-77
2024/01/31 08:49:57;;;;;;;35.73;17.63;;;8.00;75.50;;;;;;5032660;28;20439;-75
2024/01/31 08:52:23;;;;;;;36.67;17.20;;;8.00;74.20;;;;;;5052725;28;20380;-77
2024/01/31 08:54:49;;;;;;;36.43;17.53;;;8.10;72.80;;;;;;5054144;28;20435;-74
2024/01/31 08:57:14;;;;;;;31.90;16.70;;;8.00;73.20;;;;;;5054293;28;20393;-76
2024/01/31 08:59:40;;;;;;;34.07;17.10;;;8.00;73.30;;;;;;5054690;28;20477;-75
2024/01/31 09:02:07;;;;;;;33.08;17.52;;;8.00;73.20;;;;;;5054294;28;20393;-76
2024/01/31 09:04:33;;;;;;;39.95;15.73;;;8.00;73.40;;;;;;5054019;28;20804;-76
2024/01/31 09:06:58;;;;;;;31.95;15.25;;;8.20;72.20;;;;;;5054059;28;20447;-75
2024/01/31 09:09:24;;;;;;;30.50;14.60;;;8.30;70.00;;;;;;5053565;28;20407;-76
2024/01/31 09:11:49;;;;;;;30.85;15.43;;;8.20;69.40;;;;;;5053544;28;20438;-74
2024/01/31 09:14:15;;;;;;;29.88;15.43;;;8.20;71.00;;;;;;5053604;28;20390;-75
2024/01/31 09:16:41;;;;;;;28.33;13.90;;;8.20;71.60;;;;;;5053874;28;20932;-74
2024/01/31 09:19:07;;;;;;;25.33;12.20;;;8.70;68.20;;;;;;5054219;28;20492;-75
2024/01/31 09:21:32;;;;;;;25.85;11.52;;;8.90;62.30;;;;;;5053173;28;20492;-76
2024/01/31 09:23:58;;;;;;;27.40;14.88;;;8.60;63.60;;;;;;5053834;28;20442;-76
2024/01/31 09:26:24;;;;;;;34.10;17.45;;;8.50;66.20;;;;;;5053823;28;20502;-76
2024/01/31 09:28:50;;;;;;;34.50;15.80;;;8.40;68.90;;;;;;5053843;28;20713;-75
2024/01/31 09:31:26;;;;;;;35.08;17.63;;;8.40;69.90;;;;;;5053050;28;20381;-76
2024/01/31 09:33:54;;;;;;;36.78;15.30;;;8.40;71.00;;;;;;5053486;28;20417;-74
2024/01/31 09:36:21;;;;;;;39.05;18.42;;;8.30;71.40;;;;;;5035374;28;20393;-76
2024/01/31 09:38:47;;;;;;;33.72;17.08;;;8.30;72.30;;;;;;5053477;28;20468;-76
2024/01/31 09:41:14;;;;;;;33.55;16.13;;;8.30;72.90;;;;;;5052884;28;20389;-76
2024/01/31 09:43:39;;;;;;;34.35;15.63;;;8.30;73.50;;;;;;5053064;28;20392;-75
2024/01/31 09:46:07;;;;;;;33.65;15.43;;;8.20;73.80;;;;;;5053255;28;20377;-76
2024/01/31 09:48:33;;;;;;;32.83;16.83;;;8.20;74.50;;;;;;5052786;28;20455;-76
2024/01/31 09:51:00;;;;;;;29.17;15.52;;;8.30;73.70;;;;;;5052491;28;20447;-77
2024/01/31 09:53:25;;;;;;;38.15;16.08;;;8.30;72.20;;;;;;5052721;28;20392;-74
2024/01/31 09:55:55;;;;;;;32.53;16.17;;;8.30;72.70;;;;;;5053626;28;20412;-76
2024/01/31 09:58:23;;;;;;;34.78;15.48;;;8.20;73.80;;;;;;5053333;28;20698;-77
2024/01/31 10:00:51;;;;;;;30.15;15.07;;;8.40;71.30;;;;;;5035577;28;20803;-75
2024/01/31 10:03:17;;;;;;;32.25;15.25;;;8.40;71.00;;;;;;5052814;28;20431;-77
2024/01/31 10:05:43;;;;;;;41.00;15.88;;;8.40;72.80;;;;;;5054497;28;20381;-76
2024/01/31 10:08:10;;;;;;;37.72;16.20;;;8.40;71.80;;;;;;5053614;28;20384;-76
2024/01/31 10:10:36;;;;;;;33.07;15.60;;;8.40;72.50;;;;;;5056477;28;20878;-76
2024/01/31 10:13:03;;;;;;;31.87;15.27;;;8.40;72.70;;;;;;5058905;28;20389;-75
2024/01/31 10:15:29;;;;;;;35.55;16.25;;;8.30;73.20;;;;;;5054675;28;20469;-75
2024/01/31 10:17:54;;;;;;;29.60;14.13;;;8.30;73.30;;;;;;5053581;28;20506;-76
2024/01/31 10:20:20;;;;;;;32.80;15.70;;;8.40;72.00;;;;;;5056088;28;20393;-75
2024/01/31 10:22:46;;;;;;;31.90;16.38;;;8.30;72.60;;;;;;5052807;28;20368;-74
2024/01/31 10:25:16;;;;;;;32.03;15.80;;;8.30;73.40;;;;;;5052870;28;20491;-77
2024/01/31 10:27:43;;;;;;;27.73;14.30;;;8.50;72.30;;;;;;5035455;28;20406;-75
2024/01/31 10:30:10;;;;;;;34.40;14.98;;;8.70;68.90;;;;;;5053378;28;20409;-75
2024/01/31 10:32:38;;;;;;;31.73;15.45;;;8.50;70.10;;;;;;5053885;28;20385;-76
2024/01/31 10:35:05;;;;;;;37.15;15.98;;;8.50;70.90;;;;;;5052682;28;20431;-75
2024/01/31 10:37:31;;;;;;;33.35;15.02;;;8.50;71.20;;;;;;5034439;28;20914;-75
2024/01/31 10:39:58;;;;;;;33.42;14.88;;;8.50;71.50;;;;;;5052440;28;20459;-76
2024/01/31 10:42:25;;;;;;;28.20;13.80;;;8.60;71.20;;;;;;5052439;28;20729;-75
2024/01/31 10:44:51;;;;;;;30.33;13.90;;;8.60;68.50;;;;;;5052187;28;20396;-75
2024/01/31 10:47:17;;;;;;;33.05;13.43;;;8.70;66.50;;;;;;5051964;28;20382;-76
2024/01/31 10:49:42;;;;;;;28.52;12.25;;;9.00;63.80;;;;;;5052079;28;20381;-75
2024/01/31 10:52:11;;;;;;;25.53;11.80;;;9.20;60.20;;;;;;5051777;28;20899;-76
2024/01/31 10:54:41;;;;;;;29.90;12.80;;;9.10;59.00;;;;;;5052198;28;20468;-75
2024/01/31 10:57:07;;;;;;;25.15;12.45;;;9.10;59.60;;;;;;5052980;28;20385;-76
2024/01/31 10:59:37;;;;;;;27.10;13.18;;;9.10;60.80;;;;;;5052817;28;20910;-76
2024/01/31 11:02:03;;;;;;;27.38;13.77;;;9.20;60.60;;;;;;5052299;28;20378;-75
2024/01/31 11:04:29;;;;;;;41.08;16.45;;;9.20;60.10;;;;;;5053046;28;20378;-75
2024/01/31 11:06:59;;;;;;;33.90;15.70;;;9.20;60.10;;;;;;5056018;28;20396;-74
2024/01/31 11:09:25;;;;;;;36.35;16.20;;;9.40;59.40;;;;;;5057473;28;20413;-74
2024/01/31 11:12:05;;;;;;;34.30;15.95;;;9.40;59.30;;;;;;5061143;28;20441;-76
2024/01/31 11:14:32;;;;;;;33.53;16.58;;;9.40;59.40;;;;;;5057540;28;20393;-75
2024/01/31 11:17:08;;;;;;;34.23;17.20;;;9.50;57.80;;;;;;5053210;28;20385;-77
2024/01/31 11:19:40;;;;;;;35.70;18.50;;;9.40;58.30;;;;;;5053155;28;20404;-76
2024/01/31 11:22:07;;;;;;;35.80;18.48;;;9.50;58.20;;;;;;5052683;28;20386;-74
2024/01/31 11:24:33;;;;;;;35.67;18.13;;;9.40;58.30;;;;;;5052023;28;20447;-75
2024/01/31 11:27:00;;;;;;;44.80;19.83;;;9.50;57.90;;;;;;5052508;28;20584;-75
2024/01/31 11:29:26;;;;;;;36.03;17.88;;;9.60;57.70;;;;;;5033836;28;20450;-76
2024/01/31 11:31:52;;;;;;;42.17;18.00;;;9.60;58.10;;;;;;5052319;28;20385;-75
2024/01/31 11:34:17;;;;;;;41.75;18.92;;;9.60;58.00;;;;;;5052752;28;20912;-75
2024/01/31 11:36:43;;;;;;;39.53;19.70;;;9.70;57.60;;;;;;5052161;28;20484;-75
2024/01/31 11:39:09;;;;;;;36.00;19.05;;;9.70;56.80;;;;;;5052063;28;20784;-77
2024/01/31 11:41:34;;;;;;;33.77;18.47;;;9.80;56.60;;;;;;5054245;28;20385;-76
2024/01/31 11:44:00;;;;;;;32.10;18.30;;;10.00;54.20;;;;;;5052481;28;20398;-77
2024/01/31 11:46:26;;;;;;;40.27;19.63;;;10.10;54.60;;;;;;5051259;28;20386;-75
2024/01/31 11:48:53;;;;;;;36.07;18.87;;;10.20;53.80;;;;;;5051775;28;20455;-75
2024/01/31 11:51:19;;;;;;;38.03;18.45;;;10.10;54.70;;;;;;5051746;28;20389;-75
2024/01/31 11:53:45;;;;;;;40.08;19.58;;;10.00;53.80;;;;;;5054138;28;20479;-76
2024/01/31 11:56:10;;;;;;;36.55;18.95;;;9.90;54.00;;;;;;5053571;28;20893;-77
2024/01/31 11:58:37;;;;;;;35.53;18.98;;;9.90;53.80;;;;;;5033158;28;20423;-76
2024/01/31 12:01:04;;;;;;;41.25;18.50;;;10.00;52.60;;;;;;5050606;28;20816;-76
2024/01/31 12:03:30;;;;;;;31.63;17.47;;;9.90;52.60;;;;;;5051185;28;20494;-77
2024/01/31 12:05:57;;;;;;;38.00;18.42;;;9.90;52.60;;;;;;5053264;28;20385;-76
2024/01/31 12:08:28;;;;;;;33.78;18.42;;;9.90;52.00;;;;;;5050911;28;20392;-77
2024/01/31 12:10:54;;;;;;;30.65;17.48;;;9.90;52.60;;;;;;5032218;28;20494;-75
2024/01/31 12:13:21;;;;;;;35.40;17.07;;;10.00;51.40;;;;;;5051280;28;20814;-75
2024/01/31 12:15:47;;;;;;;34.83;17.67;;;9.90;52.00;;;;;;5050927;28;20432;-75
2024/01/31 12:18:14;;;;;;;32.58;17.67;;;9.90;52.10;;;;;;5050621;28;20530;-76
2024/01/31 12:20:40;;;;;;;29.80;17.10;;;10.00;50.40;;;;;;5050461;28;20392;-74
2024/01/31 12:23:06;;;;;;;34.78;18.02;;;10.00;50.50;;;;;;5050241;28;20381;-75
2024/01/31 12:25:31;;;;;;;29.10;15.50;;;10.00;50.00;;;;;;5050316;28;20782;-75
2024/01/31 12:27:57;;;;;;;33.00;16.67;;;10.00;47.10;;;;;;5053535;28;20544;-76
2024/01/31 12:30:23;;;;;;;29.70;15.67;;;10.10;47.70;;;;;;5054967;28;20813;-74
2024/01/31 12:32:49;;;;;;;33.33;17.10;;;10.30;48.10;;;;;;5054834;28;20392;-76
2024/01/31 12:35:14;;;;;;;29.40;15.93;;;10.00;47.70;;;;;;5054958;28;20795;-75